This is the latest recevied weather packets stored in our database for station/object AA6HF. If no packets are shown the sender has not sent any weather packets the latest 10 day(s).
| Time | Temp. | Humidity | Pressure | Rain* | Wind** | Luminosity | Snow |
|---|---|---|---|---|---|---|---|
| 1788621715 | 30.56° C | 20% | 1010.1 hPa | 0 mm | - | - | - |
| 1788621415 | 28.89° C | 23% | 1010 hPa | 0 mm | - | - | - |
| 1788621115 | 27.78° C | 26% | 1010.1 hPa | 0 mm | - | - | - |
| 1788620815 | 26.11° C | 30% | 1010 hPa | 0 mm | - | - | - |
| 1788620515 | 25.56° C | 32% | 1010 hPa | 0 mm | - | - | - |
| 1788620215 | 25° C | 37% | 1010 hPa | 0 mm | - | - | - |
| 1788619915 | 23.89° C | 40% | 1009.9 hPa | 0 mm | - | - | - |
| 1788619615 | 23.33° C | 42% | 1009.9 hPa | 0 mm | - | - | - |
| 1788619315 | 22.78° C | 42% | 1009.9 hPa | 0 mm | - | - | - |
| 1788619015 | 22.22° C | 45% | 1009.9 hPa | 0 mm | - | - | - |
| 1788618715 | 21.11° C | 47% | 1009.9 hPa | 0 mm | - | - | - |
| 1788618415 | 20.56° C | 46% | 1009.9 hPa | 0 mm | - | - | - |
| 1788618115 | 20.56° C | 48% | 1009.9 hPa | 0 mm | - | - | - |
| 1788617815 | 20° C | 48% | 1009.9 hPa | 0 mm | - | - | - |
| 1788617515 | 20° C | 49% | 1009.8 hPa | 0 mm | - | - | - |
| 1788617215 | 20° C | 50% | 1009.7 hPa | 0 mm | - | - | - |
| 1788616915 | 19.44° C | 51% | 1009.6 hPa | 0 mm | - | - | - |
| 1788616615 | 19.44° C | 51% | 1009.5 hPa | 0 mm | - | - | - |
| 1788616315 | 19.44° C | 52% | 1009.5 hPa | 0 mm | - | - | - |
| 1788616015 | 18.89° C | 51% | 1009.5 hPa | 0 mm | - | - | - |
| 1788615715 | 18.89° C | 51% | 1009.4 hPa | 0 mm | - | - | - |
| 1788615415 | 18.89° C | 51% | 1009.4 hPa | 0 mm | - | - | - |
| 1788615115 | 18.89° C | 51% | 1009.4 hPa | 0 mm | - | - | - |
| 1788614815 | 18.89° C | 51% | 1009.3 hPa | 0 mm | - | - | - |
| 1788614515 | 18.89° C | 51% | 1009.3 hPa | 0 mm | - | - | - |
* Rain latest hour (hover to see other rain measurements)
** Current wind speed in m/s (hover to see current wind gust speed)